sensor_id;sensor_type;location;lat;lon;timestamp;P1;durP1;ratioP1;P2;durP2;ratioP2
80195;SDS011;69516;42.050;21.516;2023-09-30T00:01:02;7.57;;;3.75;;
80195;SDS011;69516;42.050;21.516;2023-09-30T00:03:28;11.13;;;3.92;;
80195;SDS011;69516;42.050;21.516;2023-09-30T00:05:54;7.20;;;3.55;;
80195;SDS011;69516;42.050;21.516;2023-09-30T00:08:21;11.02;;;3.78;;
80195;SDS011;69516;42.050;21.516;2023-09-30T00:10:47;9.90;;;3.92;;
80195;SDS011;69516;42.050;21.516;2023-09-30T00:13:13;10.02;;;3.90;;
80195;SDS011;69516;42.050;21.516;2023-09-30T00:15:39;7.97;;;3.33;;
80195;SDS011;69516;42.050;21.516;2023-09-30T00:18:06;10.70;;;3.45;;
80195;SDS011;69516;42.050;21.516;2023-09-30T00:20:32;9.18;;;4.20;;
80195;SDS011;69516;42.050;21.516;2023-09-30T00:22:58;7.78;;;3.38;;
80195;SDS011;69516;42.050;21.516;2023-09-30T00:25:24;13.05;;;4.25;;
80195;SDS011;69516;42.050;21.516;2023-09-30T00:27:50;9.88;;;4.22;;
80195;SDS011;69516;42.050;21.516;2023-09-30T00:30:17;9.38;;;3.80;;
80195;SDS011;69516;42.050;21.516;2023-09-30T00:32:43;8.35;;;3.70;;
80195;SDS011;69516;42.050;21.516;2023-09-30T00:35:09;9.90;;;3.67;;
80195;SDS011;69516;42.050;21.516;2023-09-30T00:37:38;10.60;;;3.53;;
80195;SDS011;69516;42.050;21.516;2023-09-30T00:40:05;8.32;;;3.75;;
80195;SDS011;69516;42.050;21.516;2023-09-30T00:42:31;10.05;;;4.00;;
80195;SDS011;69516;42.050;21.516;2023-09-30T00:44:57;7.00;;;3.80;;
80195;SDS011;69516;42.050;21.516;2023-09-30T00:47:23;11.18;;;4.00;;
80195;SDS011;69516;42.050;21.516;2023-09-30T00:49:50;10.23;;;4.00;;
80195;SDS011;69516;42.050;21.516;2023-09-30T00:52:16;9.23;;;3.85;;
80195;SDS011;69516;42.050;21.516;2023-09-30T00:54:43;10.27;;;4.35;;
80195;SDS011;69516;42.050;21.516;2023-09-30T00:57:10;8.85;;;4.13;;
80195;SDS011;69516;42.050;21.516;2023-09-30T00:59:36;8.18;;;3.90;;
80195;SDS011;69516;42.050;21.516;2023-09-30T01:02:02;9.23;;;4.35;;
80195;SDS011;69516;42.050;21.516;2023-09-30T01:04:31;10.93;;;4.10;;
80195;SDS011;69516;42.050;21.516;2023-09-30T01:06:58;10.52;;;3.92;;
80195;SDS011;69516;42.050;21.516;2023-09-30T01:09:24;9.55;;;3.85;;
80195;SDS011;69516;42.050;21.516;2023-09-30T01:11:50;10.25;;;4.00;;
80195;SDS011;69516;42.050;21.516;2023-09-30T01:16:52;8.55;;;4.28;;
80195;SDS011;69516;42.050;21.516;2023-09-30T01:19:18;7.32;;;4.03;;
80195;SDS011;69516;42.050;21.516;2023-09-30T01:21:44;9.27;;;4.07;;
80195;SDS011;69516;42.050;21.516;2023-09-30T01:24:14;8.32;;;3.85;;
80195;SDS011;69516;42.050;21.516;2023-09-30T01:26:40;9.20;;;4.10;;
80195;SDS011;69516;42.050;21.516;2023-09-30T01:29:09;11.10;;;4.03;;
80195;SDS011;69516;42.050;21.516;2023-09-30T01:31:38;9.77;;;3.97;;
80195;SDS011;69516;42.050;21.516;2023-09-30T01:34:04;10.57;;;3.90;;
80195;SDS011;69516;42.050;21.516;2023-09-30T01:36:31;9.80;;;4.40;;
80195;SDS011;69516;42.050;21.516;2023-09-30T01:38:57;9.25;;;4.15;;
80195;SDS011;69516;42.050;21.516;2023-09-30T01:41:24;9.85;;;4.03;;
80195;SDS011;69516;42.050;21.516;2023-09-30T01:43:50;11.63;;;4.43;;
80195;SDS011;69516;42.050;21.516;2023-09-30T01:46:16;9.38;;;3.97;;
80195;SDS011;69516;42.050;21.516;2023-09-30T01:48:42;10.35;;;4.30;;
80195;SDS011;69516;42.050;21.516;2023-09-30T01:51:08;7.95;;;4.00;;
80195;SDS011;69516;42.050;21.516;2023-09-30T01:53:34;11.10;;;4.05;;
80195;SDS011;69516;42.050;21.516;2023-09-30T01:56:01;9.93;;;4.07;;
80195;SDS011;69516;42.050;21.516;2023-09-30T01:58:27;8.80;;;3.80;;
80195;SDS011;69516;42.050;21.516;2023-09-30T02:00:53;11.93;;;4.53;;
80195;SDS011;69516;42.050;21.516;2023-09-30T02:03:20;9.82;;;3.90;;
80195;SDS011;69516;42.050;21.516;2023-09-30T02:05:46;9.77;;;4.40;;
80195;SDS011;69516;42.050;21.516;2023-09-30T02:08:13;9.32;;;3.83;;
80195;SDS011;69516;42.050;21.516;2023-09-30T02:10:39;11.52;;;3.92;;
80195;SDS011;69516;42.050;21.516;2023-09-30T02:13:06;12.10;;;4.10;;
80195;SDS011;69516;42.050;21.516;2023-09-30T02:15:32;8.45;;;3.88;;
80195;SDS011;69516;42.050;21.516;2023-09-30T02:17:58;11.20;;;3.88;;
80195;SDS011;69516;42.050;21.516;2023-09-30T02:20:25;11.15;;;3.83;;
80195;SDS011;69516;42.050;21.516;2023-09-30T02:22:55;11.07;;;4.30;;
80195;SDS011;69516;42.050;21.516;2023-09-30T02:25:21;9.30;;;3.85;;
80195;SDS011;69516;42.050;21.516;2023-09-30T02:27:49;8.70;;;4.38;;
80195;SDS011;69516;42.050;21.516;2023-09-30T02:30:15;9.63;;;4.03;;
80195;SDS011;69516;42.050;21.516;2023-09-30T02:32:42;9.23;;;3.75;;
80195;SDS011;69516;42.050;21.516;2023-09-30T02:35:11;9.63;;;3.85;;
80195;SDS011;69516;42.050;21.516;2023-09-30T02:37:38;9.68;;;3.88;;
80195;SDS011;69516;42.050;21.516;2023-09-30T02:40:05;15.35;;;4.35;;
80195;SDS011;69516;42.050;21.516;2023-09-30T02:42:39;11.05;;;4.32;;
80195;SDS011;69516;42.050;21.516;2023-09-30T02:45:05;9.25;;;3.70;;
80195;SDS011;69516;42.050;21.516;2023-09-30T02:47:33;9.55;;;4.20;;
80195;SDS011;69516;42.050;21.516;2023-09-30T02:50:00;11.07;;;3.78;;
80195;SDS011;69516;42.050;21.516;2023-09-30T02:52:32;7.75;;;3.70;;
80195;SDS011;69516;42.050;21.516;2023-09-30T02:54:58;11.18;;;3.75;;
80195;SDS011;69516;42.050;21.516;2023-09-30T02:57:25;9.30;;;3.80;;
80195;SDS011;69516;42.050;21.516;2023-09-30T02:59:52;9.48;;;3.83;;
80195;SDS011;69516;42.050;21.516;2023-09-30T03:02:19;10.75;;;4.30;;
80195;SDS011;69516;42.050;21.516;2023-09-30T03:04:49;9.05;;;4.18;;
80195;SDS011;69516;42.050;21.516;2023-09-30T03:07:17;8.30;;;3.90;;
80195;SDS011;69516;42.050;21.516;2023-09-30T03:12:12;8.15;;;3.50;;
80195;SDS011;69516;42.050;21.516;2023-09-30T03:14:39;11.05;;;4.15;;
80195;SDS011;69516;42.050;21.516;2023-09-30T03:17:05;10.05;;;4.03;;
80195;SDS011;69516;42.050;21.516;2023-09-30T03:19:36;16.73;;;4.15;;
80195;SDS011;69516;42.050;21.516;2023-09-30T03:22:02;10.27;;;3.72;;
80195;SDS011;69516;42.050;21.516;2023-09-30T03:24:29;10.93;;;3.80;;
80195;SDS011;69516;42.050;21.516;2023-09-30T03:26:56;9.25;;;3.95;;
80195;SDS011;69516;42.050;21.516;2023-09-30T03:29:23;7.75;;;4.03;;
80195;SDS011;69516;42.050;21.516;2023-09-30T03:31:49;10.63;;;4.10;;
80195;SDS011;69516;42.050;21.516;2023-09-30T03:34:15;10.85;;;3.83;;
80195;SDS011;69516;42.050;21.516;2023-09-30T03:36:42;11.10;;;3.83;;
80195;SDS011;69516;42.050;21.516;2023-09-30T03:39:09;15.10;;;4.28;;
80195;SDS011;69516;42.050;21.516;2023-09-30T03:41:39;9.52;;;4.03;;
80195;SDS011;69516;42.050;21.516;2023-09-30T03:44:05;10.35;;;4.18;;
80195;SDS011;69516;42.050;21.516;2023-09-30T03:46:31;11.25;;;4.45;;
80195;SDS011;69516;42.050;21.516;2023-09-30T03:48:58;9.13;;;4.30;;
80195;SDS011;69516;42.050;21.516;2023-09-30T03:51:24;8.93;;;4.13;;
80195;SDS011;69516;42.050;21.516;2023-09-30T03:53:51;10.20;;;3.80;;
80195;SDS011;69516;42.050;21.516;2023-09-30T03:56:17;8.15;;;4.25;;
80195;SDS011;69516;42.050;21.516;2023-09-30T03:58:44;7.90;;;3.70;;
80195;SDS011;69516;42.050;21.516;2023-09-30T04:01:10;9.40;;;3.97;;
80195;SDS011;69516;42.050;21.516;2023-09-30T04:03:37;9.23;;;4.25;;
80195;SDS011;69516;42.050;21.516;2023-09-30T04:06:08;12.77;;;3.95;;
80195;SDS011;69516;42.050;21.516;2023-09-30T04:08:34;13.52;;;4.55;;
80195;SDS011;69516;42.050;21.516;2023-09-30T04:11:03;10.85;;;3.95;;
80195;SDS011;69516;42.050;21.516;2023-09-30T04:13:29;12.60;;;5.05;;
80195;SDS011;69516;42.050;21.516;2023-09-30T04:15:56;12.82;;;4.40;;
80195;SDS011;69516;42.050;21.516;2023-09-30T04:18:25;10.80;;;4.32;;
80195;SDS011;69516;42.050;21.516;2023-09-30T04:20:51;9.85;;;3.88;;
80195;SDS011;69516;42.050;21.516;2023-09-30T04:23:18;11.18;;;4.35;;
80195;SDS011;69516;42.050;21.516;2023-09-30T04:25:47;10.88;;;3.97;;
80195;SDS011;69516;42.050;21.516;2023-09-30T04:28:14;11.70;;;4.32;;
80195;SDS011;69516;42.050;21.516;2023-09-30T04:30:45;10.95;;;4.40;;
80195;SDS011;69516;42.050;21.516;2023-09-30T04:33:12;11.52;;;4.30;;
80195;SDS011;69516;42.050;21.516;2023-09-30T04:35:39;12.02;;;4.70;;
80195;SDS011;69516;42.050;21.516;2023-09-30T04:38:07;10.60;;;4.20;;
80195;SDS011;69516;42.050;21.516;2023-09-30T04:40:33;11.65;;;4.40;;
80195;SDS011;69516;42.050;21.516;2023-09-30T04:42:59;11.52;;;4.90;;
80195;SDS011;69516;42.050;21.516;2023-09-30T04:45:25;10.45;;;4.25;;
80195;SDS011;69516;42.050;21.516;2023-09-30T04:47:55;14.77;;;4.22;;
80195;SDS011;69516;42.050;21.516;2023-09-30T04:50:23;10.05;;;4.38;;
80195;SDS011;69516;42.050;21.516;2023-09-30T04:52:52;11.15;;;4.20;;
80195;SDS011;69516;42.050;21.516;2023-09-30T04:55:19;9.15;;;4.75;;
80195;SDS011;69516;42.050;21.516;2023-09-30T04:57:46;11.57;;;4.07;;
80195;SDS011;69516;42.050;21.516;2023-09-30T05:00:14;11.18;;;4.60;;
80195;SDS011;69516;42.050;21.516;2023-09-30T05:02:43;8.27;;;4.30;;
80195;SDS011;69516;42.050;21.516;2023-09-30T05:05:10;11.60;;;4.38;;
80195;SDS011;69516;42.050;21.516;2023-09-30T05:07:36;11.50;;;4.28;;
80195;SDS011;69516;42.050;21.516;2023-09-30T05:10:02;8.35;;;4.10;;
80195;SDS011;69516;42.050;21.516;2023-09-30T05:12:32;9.05;;;4.55;;
80195;SDS011;69516;42.050;21.516;2023-09-30T05:14:59;10.35;;;4.00;;
80195;SDS011;69516;42.050;21.516;2023-09-30T05:17:25;10.20;;;3.85;;
80195;SDS011;69516;42.050;21.516;2023-09-30T05:19:51;9.13;;;4.15;;
80195;SDS011;69516;42.050;21.516;2023-09-30T05:22:18;10.48;;;4.30;;
80195;SDS011;69516;42.050;21.516;2023-09-30T05:24:50;10.80;;;3.95;;
80195;SDS011;69516;42.050;21.516;2023-09-30T05:27:17;9.52;;;4.50;;
80195;SDS011;69516;42.050;21.516;2023-09-30T05:29:43;15.07;;;4.38;;
80195;SDS011;69516;42.050;21.516;2023-09-30T05:32:09;8.52;;;4.07;;
80195;SDS011;69516;42.050;21.516;2023-09-30T05:34:36;10.45;;;4.30;;
80195;SDS011;69516;42.050;21.516;2023-09-30T05:37:04;9.45;;;4.45;;
80195;SDS011;69516;42.050;21.516;2023-09-30T05:39:30;14.45;;;4.63;;
80195;SDS011;69516;42.050;21.516;2023-09-30T05:41:57;13.10;;;4.85;;
80195;SDS011;69516;42.050;21.516;2023-09-30T05:44:23;10.85;;;4.57;;
80195;SDS011;69516;42.050;21.516;2023-09-30T05:46:51;11.43;;;4.65;;
80195;SDS011;69516;42.050;21.516;2023-09-30T05:49:17;9.57;;;4.43;;
80195;SDS011;69516;42.050;21.516;2023-09-30T05:51:44;12.50;;;4.78;;
80195;SDS011;69516;42.050;21.516;2023-09-30T05:54:11;13.98;;;4.53;;
80195;SDS011;69516;42.050;21.516;2023-09-30T05:56:38;9.57;;;4.35;;
80195;SDS011;69516;42.050;21.516;2023-09-30T05:59:07;9.13;;;5.53;;
80195;SDS011;69516;42.050;21.516;2023-09-30T06:01:33;11.18;;;5.43;;
80195;SDS011;69516;42.050;21.516;2023-09-30T06:04:01;13.90;;;5.70;;
80195;SDS011;69516;42.050;21.516;2023-09-30T06:06:27;11.38;;;5.95;;
80195;SDS011;69516;42.050;21.516;2023-09-30T06:08:55;12.32;;;5.05;;
80195;SDS011;69516;42.050;21.516;2023-09-30T06:11:23;12.95;;;6.10;;
80195;SDS011;69516;42.050;21.516;2023-09-30T06:13:53;13.43;;;6.15;;
80195;SDS011;69516;42.050;21.516;2023-09-30T06:16:19;11.07;;;5.75;;
80195;SDS011;69516;42.050;21.516;2023-09-30T06:18:45;10.63;;;5.32;;
80195;SDS011;69516;42.050;21.516;2023-09-30T06:21:14;10.18;;;5.10;;
80195;SDS011;69516;42.050;21.516;2023-09-30T06:23:46;13.80;;;5.65;;
80195;SDS011;69516;42.050;21.516;2023-09-30T06:26:12;17.00;;;7.30;;
80195;SDS011;69516;42.050;21.516;2023-09-30T06:28:38;21.42;;;9.55;;
80195;SDS011;69516;42.050;21.516;2023-09-30T06:31:09;18.40;;;8.63;;
80195;SDS011;69516;42.050;21.516;2023-09-30T06:33:35;14.73;;;7.35;;
80195;SDS011;69516;42.050;21.516;2023-09-30T06:36:07;16.60;;;7.20;;
80195;SDS011;69516;42.050;21.516;2023-09-30T06:38:33;13.02;;;6.28;;
80195;SDS011;69516;42.050;21.516;2023-09-30T06:40:59;12.90;;;6.20;;
80195;SDS011;69516;42.050;21.516;2023-09-30T06:43:26;13.93;;;6.18;;
80195;SDS011;69516;42.050;21.516;2023-09-30T06:45:53;10.98;;;4.80;;
80195;SDS011;69516;42.050;21.516;2023-09-30T06:48:19;11.25;;;4.55;;
80195;SDS011;69516;42.050;21.516;2023-09-30T06:50:46;11.10;;;4.85;;
80195;SDS011;69516;42.050;21.516;2023-09-30T06:53:14;13.23;;;4.78;;
80195;SDS011;69516;42.050;21.516;2023-09-30T06:55:41;11.15;;;5.72;;
80195;SDS011;69516;42.050;21.516;2023-09-30T06:58:08;16.23;;;5.72;;
80195;SDS011;69516;42.050;21.516;2023-09-30T07:00:35;9.45;;;4.88;;
80195;SDS011;69516;42.050;21.516;2023-09-30T07:03:02;17.08;;;5.78;;
80195;SDS011;69516;42.050;21.516;2023-09-30T07:05:28;11.10;;;5.50;;
80195;SDS011;69516;42.050;21.516;2023-09-30T07:07:54;13.18;;;5.57;;
80195;SDS011;69516;42.050;21.516;2023-09-30T07:10:21;12.65;;;5.20;;
80195;SDS011;69516;42.050;21.516;2023-09-30T07:12:47;16.73;;;5.70;;
80195;SDS011;69516;42.050;21.516;2023-09-30T07:15:13;11.38;;;5.93;;
80195;SDS011;69516;42.050;21.516;2023-09-30T07:17:39;13.77;;;6.90;;
80195;SDS011;69516;42.050;21.516;2023-09-30T07:20:06;11.90;;;6.10;;
80195;SDS011;69516;42.050;21.516;2023-09-30T07:22:33;14.75;;;5.70;;
80195;SDS011;69516;42.050;21.516;2023-09-30T07:24:59;11.18;;;5.25;;
80195;SDS011;69516;42.050;21.516;2023-09-30T07:27:25;12.55;;;4.68;;
80195;SDS011;69516;42.050;21.516;2023-09-30T07:29:51;11.43;;;5.25;;
80195;SDS011;69516;42.050;21.516;2023-09-30T07:32:17;15.35;;;5.10;;
80195;SDS011;69516;42.050;21.516;2023-09-30T07:34:44;10.45;;;5.05;;
80195;SDS011;69516;42.050;21.516;2023-09-30T07:37:10;14.88;;;5.13;;
80195;SDS011;69516;42.050;21.516;2023-09-30T07:39:36;13.88;;;5.18;;
80195;SDS011;69516;42.050;21.516;2023-09-30T07:42:02;13.20;;;5.25;;
80195;SDS011;69516;42.050;21.516;2023-09-30T07:44:28;11.88;;;4.95;;
80195;SDS011;69516;42.050;21.516;2023-09-30T07:46:54;11.68;;;5.20;;
80195;SDS011;69516;42.050;21.516;2023-09-30T07:49:20;12.57;;;4.43;;
80195;SDS011;69516;42.050;21.516;2023-09-30T07:51:46;15.15;;;4.75;;
80195;SDS011;69516;42.050;21.516;2023-09-30T07:54:13;13.18;;;4.18;;
80195;SDS011;69516;42.050;21.516;2023-09-30T07:56:39;13.75;;;4.70;;
80195;SDS011;69516;42.050;21.516;2023-09-30T07:59:05;10.90;;;4.55;;
80195;SDS011;69516;42.050;21.516;2023-09-30T08:01:31;11.20;;;4.28;;
80195;SDS011;69516;42.050;21.516;2023-09-30T08:03:57;11.02;;;4.30;;
80195;SDS011;69516;42.050;21.516;2023-09-30T08:06:24;12.50;;;4.72;;
80195;SDS011;69516;42.050;21.516;2023-09-30T08:08:50;10.65;;;4.63;;
80195;SDS011;69516;42.050;21.516;2023-09-30T08:11:19;14.18;;;4.88;;
80195;SDS011;69516;42.050;21.516;2023-09-30T08:13:46;12.93;;;5.03;;
80195;SDS011;69516;42.050;21.516;2023-09-30T08:16:12;12.02;;;4.70;;
80195;SDS011;69516;42.050;21.516;2023-09-30T08:18:39;11.65;;;4.65;;
80195;SDS011;69516;42.050;21.516;2023-09-30T08:21:08;15.00;;;5.63;;
80195;SDS011;69516;42.050;21.516;2023-09-30T08:23:35;14.98;;;5.15;;
80195;SDS011;69516;42.050;21.516;2023-09-30T08:26:01;15.77;;;5.03;;
80195;SDS011;69516;42.050;21.516;2023-09-30T08:28:30;14.95;;;5.25;;
80195;SDS011;69516;42.050;21.516;2023-09-30T08:31:01;15.20;;;5.20;;
80195;SDS011;69516;42.050;21.516;2023-09-30T08:33:27;15.38;;;5.18;;
80195;SDS011;69516;42.050;21.516;2023-09-30T08:35:55;11.30;;;4.72;;
80195;SDS011;69516;42.050;21.516;2023-09-30T08:38:23;14.38;;;4.50;;
80195;SDS011;69516;42.050;21.516;2023-09-30T08:43:17;17.30;;;4.68;;
80195;SDS011;69516;42.050;21.516;2023-09-30T08:45:45;11.98;;;4.88;;
80195;SDS011;69516;42.050;21.516;2023-09-30T08:48:13;14.90;;;5.60;;
80195;SDS011;69516;42.050;21.516;2023-09-30T08:50:39;15.40;;;5.18;;
80195;SDS011;69516;42.050;21.516;2023-09-30T08:53:08;14.02;;;5.32;;
80195;SDS011;69516;42.050;21.516;2023-09-30T08:55:35;10.90;;;4.78;;
80195;SDS011;69516;42.050;21.516;2023-09-30T08:58:03;15.57;;;4.95;;
80195;SDS011;69516;42.050;21.516;2023-09-30T09:00:29;14.98;;;4.65;;
80195;SDS011;69516;42.050;21.516;2023-09-30T09:02:56;10.82;;;4.40;;
80195;SDS011;69516;42.050;21.516;2023-09-30T09:05:22;11.57;;;4.10;;
80195;SDS011;69516;42.050;21.516;2023-09-30T09:07:48;11.95;;;4.68;;
80195;SDS011;69516;42.050;21.516;2023-09-30T09:10:15;12.45;;;4.40;;
80195;SDS011;69516;42.050;21.516;2023-09-30T09:12:41;14.18;;;4.70;;
80195;SDS011;69516;42.050;21.516;2023-09-30T09:15:08;15.00;;;4.43;;
80195;SDS011;69516;42.050;21.516;2023-09-30T09:17:45;12.88;;;5.03;;
80195;SDS011;69516;42.050;21.516;2023-09-30T09:20:16;16.23;;;4.45;;
80195;SDS011;69516;42.050;21.516;2023-09-30T09:22:45;11.20;;;4.60;;
80195;SDS011;69516;42.050;21.516;2023-09-30T09:25:12;12.80;;;5.00;;
80195;SDS011;69516;42.050;21.516;2023-09-30T09:27:38;12.95;;;4.70;;
80195;SDS011;69516;42.050;21.516;2023-09-30T09:32:59;9.48;;;4.82;;
80195;SDS011;69516;42.050;21.516;2023-09-30T09:35:25;14.13;;;5.03;;
80195;SDS011;69516;42.050;21.516;2023-09-30T09:40:22;10.75;;;4.63;;
80195;SDS011;69516;42.050;21.516;2023-09-30T09:42:51;10.38;;;4.80;;
80195;SDS011;69516;42.050;21.516;2023-09-30T09:45:20;11.45;;;4.95;;
80195;SDS011;69516;42.050;21.516;2023-09-30T09:47:50;11.07;;;4.32;;
80195;SDS011;69516;42.050;21.516;2023-09-30T09:50:19;11.13;;;4.88;;
80195;SDS011;69516;42.050;21.516;2023-09-30T09:52:50;12.88;;;4.50;;
80195;SDS011;69516;42.050;21.516;2023-09-30T09:55:20;9.75;;;4.50;;
80195;SDS011;69516;42.050;21.516;2023-09-30T09:57:47;10.43;;;4.72;;
80195;SDS011;69516;42.050;21.516;2023-09-30T10:00:24;9.85;;;4.82;;
80195;SDS011;69516;42.050;21.516;2023-09-30T10:02:50;10.15;;;4.68;;
80195;SDS011;69516;42.050;21.516;2023-09-30T10:05:17;9.07;;;4.88;;
80195;SDS011;69516;42.050;21.516;2023-09-30T10:07:54;12.63;;;4.63;;
80195;SDS011;69516;42.050;21.516;2023-09-30T10:10:21;10.00;;;4.63;;
80195;SDS011;69516;42.050;21.516;2023-09-30T10:12:48;12.18;;;4.35;;
80195;SDS011;69516;42.050;21.516;2023-09-30T10:18:03;9.30;;;4.40;;
80195;SDS011;69516;42.050;21.516;2023-09-30T10:20:30;9.07;;;4.40;;
80195;SDS011;69516;42.050;21.516;2023-09-30T10:25:42;11.60;;;4.43;;
80195;SDS011;69516;42.050;21.516;2023-09-30T10:28:33;9.32;;;4.30;;
80195;SDS011;69516;42.050;21.516;2023-09-30T10:31:15;7.50;;;4.22;;
80195;SDS011;69516;42.050;21.516;2023-09-30T10:34:18;9.38;;;4.03;;
80195;SDS011;69516;42.050;21.516;2023-09-30T10:36:37;10.85;;;4.78;;
80195;SDS011;69516;42.050;21.516;2023-09-30T10:39:05;10.65;;;3.75;;
80195;SDS011;69516;42.050;21.516;2023-09-30T10:46:53;14.10;;;4.28;;
80195;SDS011;69516;42.050;21.516;2023-09-30T10:51:50;11.40;;;4.28;;
80195;SDS011;69516;42.050;21.516;2023-09-30T10:54:21;10.77;;;4.07;;
80195;SDS011;69516;42.050;21.516;2023-09-30T10:59:24;10.85;;;3.83;;
80195;SDS011;69516;42.050;21.516;2023-09-30T11:01:50;10.90;;;4.10;;
80195;SDS011;69516;42.050;21.516;2023-09-30T11:04:18;13.25;;;4.50;;
80195;SDS011;69516;42.050;21.516;2023-09-30T11:06:45;9.73;;;3.90;;
80195;SDS011;69516;42.050;21.516;2023-09-30T11:09:18;11.88;;;4.13;;
80195;SDS011;69516;42.050;21.516;2023-09-30T11:11:45;12.68;;;4.15;;
80195;SDS011;69516;42.050;21.516;2023-09-30T11:14:21;8.30;;;3.60;;
80195;SDS011;69516;42.050;21.516;2023-09-30T11:16:48;7.82;;;4.20;;
80195;SDS011;69516;42.050;21.516;2023-09-30T11:19:15;10.52;;;3.95;;
80195;SDS011;69516;42.050;21.516;2023-09-30T11:21:41;11.65;;;3.90;;
80195;SDS011;69516;42.050;21.516;2023-09-30T11:24:10;13.05;;;4.30;;
80195;SDS011;69516;42.050;21.516;2023-09-30T11:26:37;8.57;;;3.45;;
80195;SDS011;69516;42.050;21.516;2023-09-30T11:29:06;9.40;;;3.90;;
80195;SDS011;69516;42.050;21.516;2023-09-30T11:31:33;11.85;;;3.75;;
80195;SDS011;69516;42.050;21.516;2023-09-30T11:33:59;9.60;;;3.80;;
80195;SDS011;69516;42.050;21.516;2023-09-30T11:36:29;9.88;;;3.92;;
80195;SDS011;69516;42.050;21.516;2023-09-30T11:38:59;13.13;;;4.05;;
80195;SDS011;69516;42.050;21.516;2023-09-30T11:41:35;9.98;;;3.80;;
80195;SDS011;69516;42.050;21.516;2023-09-30T11:44:10;10.48;;;4.00;;
80195;SDS011;69516;42.050;21.516;2023-09-30T11:46:54;8.32;;;3.80;;
80195;SDS011;69516;42.050;21.516;2023-09-30T11:49:39;11.05;;;3.72;;
80195;SDS011;69516;42.050;21.516;2023-09-30T11:52:06;10.70;;;3.88;;
80195;SDS011;69516;42.050;21.516;2023-09-30T11:54:34;8.93;;;3.55;;
80195;SDS011;69516;42.050;21.516;2023-09-30T11:57:02;7.10;;;3.70;;
80195;SDS011;69516;42.050;21.516;2023-09-30T11:59:29;9.15;;;3.70;;
80195;SDS011;69516;42.050;21.516;2023-09-30T12:01:55;11.85;;;4.15;;
80195;SDS011;69516;42.050;21.516;2023-09-30T12:04:22;10.15;;;3.78;;
80195;SDS011;69516;42.050;21.516;2023-09-30T12:06:48;10.10;;;3.65;;
80195;SDS011;69516;42.050;21.516;2023-09-30T12:09:14;9.77;;;3.47;;
80195;SDS011;69516;42.050;21.516;2023-09-30T12:11:42;6.93;;;3.47;;
80195;SDS011;69516;42.050;21.516;2023-09-30T12:14:12;9.70;;;3.80;;
80195;SDS011;69516;42.050;21.516;2023-09-30T12:16:39;8.75;;;4.03;;
80195;SDS011;69516;42.050;21.516;2023-09-30T12:19:06;13.05;;;3.95;;
80195;SDS011;69516;42.050;21.516;2023-09-30T12:21:32;11.63;;;4.22;;
80195;SDS011;69516;42.050;21.516;2023-09-30T12:23:59;9.07;;;4.10;;
80195;SDS011;69516;42.050;21.516;2023-09-30T12:26:25;10.90;;;3.75;;
80195;SDS011;69516;42.050;21.516;2023-09-30T12:28:52;8.65;;;4.03;;
80195;SDS011;69516;42.050;21.516;2023-09-30T12:31:18;11.07;;;3.88;;
80195;SDS011;69516;42.050;21.516;2023-09-30T12:33:45;10.52;;;4.00;;
80195;SDS011;69516;42.050;21.516;2023-09-30T12:36:15;10.27;;;4.00;;
80195;SDS011;69516;42.050;21.516;2023-09-30T12:38:44;10.43;;;4.00;;
80195;SDS011;69516;42.050;21.516;2023-09-30T12:41:10;8.85;;;3.60;;
80195;SDS011;69516;42.050;21.516;2023-09-30T12:43:39;9.75;;;4.18;;
80195;SDS011;69516;42.050;21.516;2023-09-30T12:46:07;9.40;;;3.83;;
80195;SDS011;69516;42.050;21.516;2023-09-30T12:48:33;10.63;;;3.83;;
80195;SDS011;69516;42.050;21.516;2023-09-30T12:50:59;8.55;;;4.22;;
80195;SDS011;69516;42.050;21.516;2023-09-30T12:53:25;9.73;;;3.80;;
80195;SDS011;69516;42.050;21.516;2023-09-30T12:55:51;9.95;;;4.55;;
80195;SDS011;69516;42.050;21.516;2023-09-30T12:58:17;9.23;;;3.58;;
80195;SDS011;69516;42.050;21.516;2023-09-30T13:00:43;10.43;;;3.72;;
80195;SDS011;69516;42.050;21.516;2023-09-30T13:03:10;8.20;;;3.88;;
80195;SDS011;69516;42.050;21.516;2023-09-30T13:05:37;8.75;;;3.83;;
80195;SDS011;69516;42.050;21.516;2023-09-30T13:08:03;9.80;;;3.70;;
80195;SDS011;69516;42.050;21.516;2023-09-30T13:10:30;10.70;;;4.20;;
80195;SDS011;69516;42.050;21.516;2023-09-30T13:12:56;11.90;;;4.00;;
80195;SDS011;69516;42.050;21.516;2023-09-30T13:15:22;10.25;;;4.30;;
80195;SDS011;69516;42.050;21.516;2023-09-30T13:17:51;10.75;;;3.92;;
80195;SDS011;69516;42.050;21.516;2023-09-30T13:20:17;6.57;;;3.53;;
80195;SDS011;69516;42.050;21.516;2023-09-30T13:22:43;12.50;;;3.83;;
80195;SDS011;69516;42.050;21.516;2023-09-30T13:25:10;9.88;;;3.75;;
80195;SDS011;69516;42.050;21.516;2023-09-30T13:27:41;9.30;;;3.40;;
80195;SDS011;69516;42.050;21.516;2023-09-30T13:30:08;9.05;;;4.22;;
80195;SDS011;69516;42.050;21.516;2023-09-30T13:32:35;9.25;;;3.70;;
80195;SDS011;69516;42.050;21.516;2023-09-30T13:35:05;8.32;;;3.78;;
80195;SDS011;69516;42.050;21.516;2023-09-30T13:37:31;13.45;;;3.80;;
80195;SDS011;69516;42.050;21.516;2023-09-30T13:40:01;10.98;;;4.07;;
80195;SDS011;69516;42.050;21.516;2023-09-30T13:42:29;7.97;;;3.45;;
80195;SDS011;69516;42.050;21.516;2023-09-30T13:44:55;10.27;;;3.92;;
80195;SDS011;69516;42.050;21.516;2023-09-30T13:47:25;10.13;;;3.83;;
80195;SDS011;69516;42.050;21.516;2023-09-30T13:49:52;9.88;;;4.00;;
80195;SDS011;69516;42.050;21.516;2023-09-30T13:52:18;9.27;;;3.88;;
80195;SDS011;69516;42.050;21.516;2023-09-30T13:54:44;8.45;;;3.90;;
80195;SDS011;69516;42.050;21.516;2023-09-30T13:57:11;8.27;;;3.70;;
80195;SDS011;69516;42.050;21.516;2023-09-30T14:02:05;10.40;;;3.80;;
80195;SDS011;69516;42.050;21.516;2023-09-30T14:04:32;7.63;;;3.42;;
80195;SDS011;69516;42.050;21.516;2023-09-30T14:07:00;9.52;;;3.85;;
80195;SDS011;69516;42.050;21.516;2023-09-30T14:09:27;10.02;;;3.67;;
80195;SDS011;69516;42.050;21.516;2023-09-30T14:11:53;10.40;;;3.97;;
80195;SDS011;69516;42.050;21.516;2023-09-30T14:14:19;8.70;;;3.78;;
80195;SDS011;69516;42.050;21.516;2023-09-30T14:16:46;7.28;;;3.60;;
80195;SDS011;69516;42.050;21.516;2023-09-30T14:19:12;10.25;;;3.88;;
80195;SDS011;69516;42.050;21.516;2023-09-30T14:21:41;13.75;;;4.28;;
80195;SDS011;69516;42.050;21.516;2023-09-30T14:24:07;9.00;;;4.00;;
80195;SDS011;69516;42.050;21.516;2023-09-30T14:26:33;9.30;;;3.75;;
80195;SDS011;69516;42.050;21.516;2023-09-30T14:29:00;9.05;;;3.80;;
80195;SDS011;69516;42.050;21.516;2023-09-30T14:31:26;9.23;;;3.65;;
80195;SDS011;69516;42.050;21.516;2023-09-30T14:33:52;9.35;;;3.58;;
80195;SDS011;69516;42.050;21.516;2023-09-30T14:36:19;8.85;;;3.72;;
80195;SDS011;69516;42.050;21.516;2023-09-30T14:38:45;7.63;;;4.07;;
80195;SDS011;69516;42.050;21.516;2023-09-30T14:41:11;11.73;;;4.30;;
80195;SDS011;69516;42.050;21.516;2023-09-30T14:43:38;10.80;;;3.90;;
80195;SDS011;69516;42.050;21.516;2023-09-30T14:46:04;8.95;;;3.83;;
80195;SDS011;69516;42.050;21.516;2023-09-30T14:48:31;6.85;;;3.40;;
80195;SDS011;69516;42.050;21.516;2023-09-30T14:50:57;7.55;;;3.65;;
80195;SDS011;69516;42.050;21.516;2023-09-30T14:53:23;8.63;;;3.67;;
80195;SDS011;69516;42.050;21.516;2023-09-30T14:55:50;9.20;;;3.67;;
80195;SDS011;69516;42.050;21.516;2023-09-30T14:58:16;11.15;;;4.38;;